Kiefer, Oklahoma
Current Conditions -  °F | °C
As of 5:17 AM on Sunday 21 Dec 2014 (Local Time) from KRVS Reporting Station
Overcast Overcast  
Wind Chill: 39°   Ceiling: 3600
Heat Index: 42°   Visibility: 10mi
Dew Point: 40°   Wind: 5mph
Humidity: 92%   Direction: 170°S
Pressure: 30.09"   Gusts: NA
Location:  35.94°N, 96.07°W
Report Text: KRVS 211117Z AUTO 17004KT 10SM FEW006 SCT012 OVC036 06/04 A3009 RMK AO2 T00560044
Loading
Personal Weather Stations






























Interactive Weather Map New forecast layout! Learn more

10-Day Weather Forecast

Advertisements
Track Severe Weather on mobile